Terminal Aerodrome Forecast
Issued by NWS Wilmington, OH

Current Version | Previous Version | Text Only | Print | Product List | Glossary Off
Versions: 1 2 3 4 5 6 7 8 9 10 11 12 13 14 15 16 17 18 19 20 21 22 23 24 25 26 27 28 29 30 31 32 33

000
FTUS41 KILN 301100
TAFDAY
TAF
KDAY 301134Z 3012/3112 33015G24KT P6SM BKN050
     FM301500 33014G22KT P6SM OVC020
     FM302100 33011KT P6SM OVC015
     FM310200 VRB04KT P6SM BKN015
     FM310400 18004KT P6SM SKC=

USA.gov is the U.S. government's official web portal to all federal, state and local government web resources and services.